Pearcy, Arkansas
Current Conditions -  °F | °C
As of 2:53 AM on Thursday 27 Nov 2014 (Local Time) from KHOT Reporting Station
Clear Clear  
Wind Chill: 33°   Ceiling: Unl
Heat Index: 40°   Visibility: 10mi
Dew Point: 26°   Wind: 10mph
Humidity: 58%   Direction: 350°N
Pressure: 30.34"   Gusts: 18mph
Location:  34.43°N, 93.29°W
Report Text: KHOT 270853Z AUTO 35009G16KT 10SM CLR 04/M03 A3034 RMK AO2 SLP273 T00441033 50011
Loading
Personal Weather Stations






























Interactive Weather Map New forecast layout! Learn more

10-Day Weather Forecast

Advertisements
Track Severe Weather on mobile